sensor_id;sensor_type;location;lat;lon;timestamp;P1;durP1;ratioP1;P2;durP2;ratioP2
70459;SDS011;57920;54.796;9.430;2023-01-26T00:00:42;4.23;;;2.97;;
70459;SDS011;57920;54.796;9.430;2023-01-26T00:03:08;4.50;;;3.17;;
70459;SDS011;57920;54.796;9.430;2023-01-26T00:05:35;2.87;;;2.33;;
70459;SDS011;57920;54.796;9.430;2023-01-26T00:08:02;2.77;;;2.57;;
70459;SDS011;57920;54.796;9.430;2023-01-26T00:10:27;2.83;;;2.27;;
70459;SDS011;57920;54.796;9.430;2023-01-26T00:12:53;3.57;;;2.20;;
70459;SDS011;57920;54.796;9.430;2023-01-26T00:15:18;2.53;;;2.10;;
70459;SDS011;57920;54.796;9.430;2023-01-26T00:17:44;2.53;;;2.33;;
70459;SDS011;57920;54.796;9.430;2023-01-26T00:20:13;2.13;;;1.93;;
70459;SDS011;57920;54.796;9.430;2023-01-26T00:22:38;3.30;;;2.47;;
70459;SDS011;57920;54.796;9.430;2023-01-26T00:25:04;2.33;;;2.10;;
70459;SDS011;57920;54.796;9.430;2023-01-26T00:27:33;2.33;;;1.80;;
70459;SDS011;57920;54.796;9.430;2023-01-26T00:29:58;3.57;;;2.00;;
70459;SDS011;57920;54.796;9.430;2023-01-26T00:32:24;2.43;;;2.20;;
70459;SDS011;57920;54.796;9.430;2023-01-26T00:34:49;1.73;;;1.63;;
70459;SDS011;57920;54.796;9.430;2023-01-26T00:37:15;2.27;;;1.73;;
70459;SDS011;57920;54.796;9.430;2023-01-26T00:39:41;1.87;;;1.70;;
70459;SDS011;57920;54.796;9.430;2023-01-26T00:42:06;2.73;;;1.60;;
70459;SDS011;57920;54.796;9.430;2023-01-26T00:44:38;2.33;;;1.93;;
70459;SDS011;57920;54.796;9.430;2023-01-26T00:47:06;2.13;;;1.87;;
70459;SDS011;57920;54.796;9.430;2023-01-26T00:49:36;1.77;;;1.67;;
70459;SDS011;57920;54.796;9.430;2023-01-26T00:52:02;2.13;;;1.60;;
70459;SDS011;57920;54.796;9.430;2023-01-26T00:54:28;1.67;;;1.37;;
70459;SDS011;57920;54.796;9.430;2023-01-26T00:56:54;2.10;;;1.90;;
70459;SDS011;57920;54.796;9.430;2023-01-26T00:59:20;1.40;;;1.30;;
70459;SDS011;57920;54.796;9.430;2023-01-26T01:01:46;1.83;;;1.33;;
70459;SDS011;57920;54.796;9.430;2023-01-26T01:04:12;1.87;;;1.77;;
70459;SDS011;57920;54.796;9.430;2023-01-26T01:06:39;2.30;;;1.50;;
70459;SDS011;57920;54.796;9.430;2023-01-26T01:09:04;1.33;;;0.93;;
70459;SDS011;57920;54.796;9.430;2023-01-26T01:11:30;1.63;;;1.53;;
70459;SDS011;57920;54.796;9.430;2023-01-26T01:13:56;1.37;;;1.17;;
70459;SDS011;57920;54.796;9.430;2023-01-26T01:16:24;1.70;;;1.60;;
70459;SDS011;57920;54.796;9.430;2023-01-26T01:18:55;3.53;;;1.33;;
70459;SDS011;57920;54.796;9.430;2023-01-26T01:21:21;1.50;;;1.10;;
70459;SDS011;57920;54.796;9.430;2023-01-26T01:23:48;1.30;;;1.20;;
70459;SDS011;57920;54.796;9.430;2023-01-26T01:26:14;1.10;;;1.00;;
70459;SDS011;57920;54.796;9.430;2023-01-26T01:28:40;1.30;;;1.07;;
70459;SDS011;57920;54.796;9.430;2023-01-26T01:31:08;1.70;;;1.40;;
70459;SDS011;57920;54.796;9.430;2023-01-26T01:33:36;1.47;;;1.33;;
70459;SDS011;57920;54.796;9.430;2023-01-26T01:36:06;1.43;;;1.10;;
70459;SDS011;57920;54.796;9.430;2023-01-26T01:38:33;1.00;;;1.00;;
70459;SDS011;57920;54.796;9.430;2023-01-26T01:40:59;1.13;;;1.03;;
70459;SDS011;57920;54.796;9.430;2023-01-26T01:43:27;2.93;;;1.07;;
70459;SDS011;57920;54.796;9.430;2023-01-26T01:45:53;0.90;;;0.90;;
70459;SDS011;57920;54.796;9.430;2023-01-26T01:51:28;0.83;;;0.83;;
70459;SDS011;57920;54.796;9.430;2023-01-26T01:53:55;0.60;;;0.60;;
70459;SDS011;57920;54.796;9.430;2023-01-26T01:56:28;0.70;;;0.70;;
70459;SDS011;57920;54.796;9.430;2023-01-26T01:58:56;0.90;;;0.90;;
70459;SDS011;57920;54.796;9.430;2023-01-26T02:01:23;0.73;;;0.73;;
70459;SDS011;57920;54.796;9.430;2023-01-26T02:03:50;0.90;;;0.77;;
70459;SDS011;57920;54.796;9.430;2023-01-26T02:06:24;1.00;;;0.90;;
70459;SDS011;57920;54.796;9.430;2023-01-26T02:09:02;0.70;;;0.70;;
70459;SDS011;57920;54.796;9.430;2023-01-26T02:11:47;0.60;;;0.60;;
70459;SDS011;57920;54.796;9.430;2023-01-26T02:14:13;0.80;;;0.80;;
70459;SDS011;57920;54.796;9.430;2023-01-26T02:16:40;0.70;;;0.70;;
70459;SDS011;57920;54.796;9.430;2023-01-26T02:19:51;0.60;;;0.60;;
70459;SDS011;57920;54.796;9.430;2023-01-26T02:22:21;0.93;;;0.60;;
70459;SDS011;57920;54.796;9.430;2023-01-26T02:24:57;0.57;;;0.57;;
70459;SDS011;57920;54.796;9.430;2023-01-26T02:27:27;1.43;;;0.70;;
70459;SDS011;57920;54.796;9.430;2023-01-26T02:29:53;1.00;;;0.70;;
70459;SDS011;57920;54.796;9.430;2023-01-26T02:32:20;0.70;;;0.70;;
70459;SDS011;57920;54.796;9.430;2023-01-26T02:34:45;0.70;;;0.70;;
70459;SDS011;57920;54.796;9.430;2023-01-26T02:37:12;1.10;;;0.77;;
70459;SDS011;57920;54.796;9.430;2023-01-26T02:42:22;1.00;;;0.60;;
70459;SDS011;57920;54.796;9.430;2023-01-26T02:45:04;0.53;;;0.53;;
70459;SDS011;57920;54.796;9.430;2023-01-26T02:47:30;0.90;;;0.80;;
70459;SDS011;57920;54.796;9.430;2023-01-26T02:50:02;0.50;;;0.50;;
70459;SDS011;57920;54.796;9.430;2023-01-26T02:52:28;0.80;;;0.77;;
70459;SDS011;57920;54.796;9.430;2023-01-26T02:54:57;0.50;;;0.50;;
70459;SDS011;57920;54.796;9.430;2023-01-26T02:57:42;1.23;;;0.70;;
70459;SDS011;57920;54.796;9.430;2023-01-26T03:00:10;0.50;;;0.50;;
70459;SDS011;57920;54.796;9.430;2023-01-26T03:02:57;1.33;;;0.70;;
70459;SDS011;57920;54.796;9.430;2023-01-26T03:05:27;0.40;;;0.40;;
70459;SDS011;57920;54.796;9.430;2023-01-26T03:07:53;0.50;;;0.50;;
70459;SDS011;57920;54.796;9.430;2023-01-26T03:10:19;0.70;;;0.60;;
70459;SDS011;57920;54.796;9.430;2023-01-26T03:12:48;0.50;;;0.50;;
70459;SDS011;57920;54.796;9.430;2023-01-26T03:15:13;0.50;;;0.50;;
70459;SDS011;57920;54.796;9.430;2023-01-26T03:18:02;0.67;;;0.67;;
70459;SDS011;57920;54.796;9.430;2023-01-26T03:20:57;0.30;;;0.30;;
70459;SDS011;57920;54.796;9.430;2023-01-26T03:23:42;1.13;;;0.60;;
70459;SDS011;57920;54.796;9.430;2023-01-26T03:26:26;0.40;;;0.40;;
70459;SDS011;57920;54.796;9.430;2023-01-26T03:29:11;1.00;;;0.40;;
70459;SDS011;57920;54.796;9.430;2023-01-26T03:31:37;0.50;;;0.50;;
70459;SDS011;57920;54.796;9.430;2023-01-26T03:34:02;0.87;;;0.70;;
70459;SDS011;57920;54.796;9.430;2023-01-26T03:36:28;0.50;;;0.50;;
70459;SDS011;57920;54.796;9.430;2023-01-26T03:38:54;0.60;;;0.57;;
70459;SDS011;57920;54.796;9.430;2023-01-26T03:41:20;0.60;;;0.60;;
70459;SDS011;57920;54.796;9.430;2023-01-26T03:44:04;1.00;;;0.70;;
70459;SDS011;57920;54.796;9.430;2023-01-26T03:46:48;0.93;;;0.80;;
70459;SDS011;57920;54.796;9.430;2023-01-26T03:49:38;0.60;;;0.60;;
70459;SDS011;57920;54.796;9.430;2023-01-26T03:52:22;0.77;;;0.60;;
70459;SDS011;57920;54.796;9.430;2023-01-26T03:55:06;0.50;;;0.50;;
70459;SDS011;57920;54.796;9.430;2023-01-26T03:57:51;0.50;;;0.50;;
70459;SDS011;57920;54.796;9.430;2023-01-26T04:00:16;0.83;;;0.60;;
70459;SDS011;57920;54.796;9.430;2023-01-26T04:02:42;0.80;;;0.80;;
70459;SDS011;57920;54.796;9.430;2023-01-26T04:05:26;0.70;;;0.70;;
70459;SDS011;57920;54.796;9.430;2023-01-26T04:08:10;0.40;;;0.40;;
70459;SDS011;57920;54.796;9.430;2023-01-26T04:10:49;0.50;;;0.50;;
70459;SDS011;57920;54.796;9.430;2023-01-26T04:13:16;1.27;;;0.57;;
70459;SDS011;57920;54.796;9.430;2023-01-26T04:16:02;1.37;;;0.60;;
70459;SDS011;57920;54.796;9.430;2023-01-26T04:18:55;0.60;;;0.60;;
70459;SDS011;57920;54.796;9.430;2023-01-26T04:21:40;0.63;;;0.53;;
70459;SDS011;57920;54.796;9.430;2023-01-26T04:24:05;0.50;;;0.50;;
70459;SDS011;57920;54.796;9.430;2023-01-26T04:26:37;1.90;;;0.80;;
70459;SDS011;57920;54.796;9.430;2023-01-26T04:29:04;1.13;;;0.70;;
70459;SDS011;57920;54.796;9.430;2023-01-26T04:31:35;0.80;;;0.67;;
70459;SDS011;57920;54.796;9.430;2023-01-26T04:34:01;0.83;;;0.60;;
70459;SDS011;57920;54.796;9.430;2023-01-26T04:36:28;0.87;;;0.87;;
70459;SDS011;57920;54.796;9.430;2023-01-26T04:38:54;1.07;;;0.80;;
70459;SDS011;57920;54.796;9.430;2023-01-26T04:41:20;1.03;;;0.90;;
70459;SDS011;57920;54.796;9.430;2023-01-26T04:43:45;1.10;;;0.60;;
70459;SDS011;57920;54.796;9.430;2023-01-26T04:46:11;1.00;;;0.80;;
70459;SDS011;57920;54.796;9.430;2023-01-26T04:48:43;1.20;;;1.10;;
70459;SDS011;57920;54.796;9.430;2023-01-26T04:51:13;0.70;;;0.70;;
70459;SDS011;57920;54.796;9.430;2023-01-26T04:53:40;1.23;;;0.90;;
70459;SDS011;57920;54.796;9.430;2023-01-26T04:56:06;0.73;;;0.70;;
70459;SDS011;57920;54.796;9.430;2023-01-26T04:58:37;0.93;;;0.83;;
70459;SDS011;57920;54.796;9.430;2023-01-26T05:01:02;0.80;;;0.63;;
70459;SDS011;57920;54.796;9.430;2023-01-26T05:03:28;1.47;;;1.03;;
70459;SDS011;57920;54.796;9.430;2023-01-26T05:05:54;1.30;;;0.77;;
70459;SDS011;57920;54.796;9.430;2023-01-26T05:08:20;1.13;;;0.83;;
70459;SDS011;57920;54.796;9.430;2023-01-26T05:10:46;1.57;;;1.00;;
70459;SDS011;57920;54.796;9.430;2023-01-26T05:13:12;1.47;;;0.90;;
70459;SDS011;57920;54.796;9.430;2023-01-26T05:15:38;1.43;;;1.13;;
70459;SDS011;57920;54.796;9.430;2023-01-26T05:18:04;1.37;;;1.00;;
70459;SDS011;57920;54.796;9.430;2023-01-26T05:20:34;1.93;;;1.07;;
70459;SDS011;57920;54.796;9.430;2023-01-26T05:22:59;1.07;;;0.90;;
70459;SDS011;57920;54.796;9.430;2023-01-26T05:25:25;1.60;;;1.03;;
70459;SDS011;57920;54.796;9.430;2023-01-26T05:27:50;1.60;;;1.20;;
70459;SDS011;57920;54.796;9.430;2023-01-26T05:30:17;1.07;;;1.00;;
70459;SDS011;57920;54.796;9.430;2023-01-26T05:32:43;0.90;;;0.90;;
70459;SDS011;57920;54.796;9.430;2023-01-26T05:35:09;1.27;;;1.17;;
70459;SDS011;57920;54.796;9.430;2023-01-26T05:37:35;1.90;;;1.00;;
70459;SDS011;57920;54.796;9.430;2023-01-26T05:40:01;1.80;;;1.40;;
70459;SDS011;57920;54.796;9.430;2023-01-26T05:42:26;1.80;;;1.40;;
70459;SDS011;57920;54.796;9.430;2023-01-26T05:44:52;1.47;;;1.37;;
70459;SDS011;57920;54.796;9.430;2023-01-26T05:47:18;1.47;;;1.23;;
70459;SDS011;57920;54.796;9.430;2023-01-26T05:49:44;1.77;;;1.43;;
70459;SDS011;57920;54.796;9.430;2023-01-26T05:52:10;1.80;;;1.40;;
70459;SDS011;57920;54.796;9.430;2023-01-26T05:54:38;1.40;;;1.20;;
70459;SDS011;57920;54.796;9.430;2023-01-26T05:57:04;2.53;;;1.87;;
70459;SDS011;57920;54.796;9.430;2023-01-26T05:59:30;1.80;;;1.30;;
70459;SDS011;57920;54.796;9.430;2023-01-26T06:01:56;2.10;;;1.57;;
70459;SDS011;57920;54.796;9.430;2023-01-26T06:04:22;2.17;;;1.53;;
70459;SDS011;57920;54.796;9.430;2023-01-26T06:06:48;3.23;;;1.80;;
70459;SDS011;57920;54.796;9.430;2023-01-26T06:09:16;2.00;;;1.53;;
70459;SDS011;57920;54.796;9.430;2023-01-26T06:11:42;2.40;;;1.80;;
70459;SDS011;57920;54.796;9.430;2023-01-26T06:14:07;2.10;;;1.70;;
70459;SDS011;57920;54.796;9.430;2023-01-26T06:16:33;2.97;;;1.80;;
70459;SDS011;57920;54.796;9.430;2023-01-26T06:18:59;2.87;;;1.70;;
70459;SDS011;57920;54.796;9.430;2023-01-26T06:21:24;1.30;;;1.20;;
70459;SDS011;57920;54.796;9.430;2023-01-26T06:23:50;3.17;;;1.63;;
70459;SDS011;57920;54.796;9.430;2023-01-26T06:26:15;2.00;;;1.50;;
70459;SDS011;57920;54.796;9.430;2023-01-26T06:28:41;1.80;;;1.20;;
70459;SDS011;57920;54.796;9.430;2023-01-26T06:31:07;2.50;;;1.67;;
70459;SDS011;57920;54.796;9.430;2023-01-26T06:33:33;2.20;;;1.50;;
70459;SDS011;57920;54.796;9.430;2023-01-26T06:36:10;2.07;;;1.60;;
70459;SDS011;57920;54.796;9.430;2023-01-26T06:38:37;2.37;;;1.57;;
70459;SDS011;57920;54.796;9.430;2023-01-26T06:41:06;3.47;;;1.70;;
70459;SDS011;57920;54.796;9.430;2023-01-26T06:43:33;1.90;;;1.50;;
70459;SDS011;57920;54.796;9.430;2023-01-26T06:46:00;2.63;;;1.43;;
70459;SDS011;57920;54.796;9.430;2023-01-26T06:48:30;4.13;;;1.73;;
70459;SDS011;57920;54.796;9.430;2023-01-26T06:53:43;3.90;;;2.03;;
70459;SDS011;57920;54.796;9.430;2023-01-26T06:56:19;6.73;;;2.10;;
70459;SDS011;57920;54.796;9.430;2023-01-26T06:58:45;45.30;;;19.40;;
70459;SDS011;57920;54.796;9.430;2023-01-26T07:01:20;27.03;;;13.77;;
70459;SDS011;57920;54.796;9.430;2023-01-26T07:03:48;25.70;;;11.97;;
70459;SDS011;57920;54.796;9.430;2023-01-26T07:06:18;20.37;;;9.77;;
70459;SDS011;57920;54.796;9.430;2023-01-26T07:08:44;18.53;;;10.57;;
70459;SDS011;57920;54.796;9.430;2023-01-26T07:11:10;21.93;;;10.60;;
70459;SDS011;57920;54.796;9.430;2023-01-26T07:13:36;20.57;;;10.07;;
70459;SDS011;57920;54.796;9.430;2023-01-26T07:16:07;17.00;;;9.37;;
70459;SDS011;57920;54.796;9.430;2023-01-26T07:21:31;14.87;;;9.10;;
70459;SDS011;57920;54.796;9.430;2023-01-26T07:23:59;16.83;;;9.83;;
70459;SDS011;57920;54.796;9.430;2023-01-26T07:26:25;18.17;;;9.50;;
70459;SDS011;57920;54.796;9.430;2023-01-26T07:28:53;20.87;;;9.63;;
70459;SDS011;57920;54.796;9.430;2023-01-26T07:31:20;15.27;;;8.83;;
70459;SDS011;57920;54.796;9.430;2023-01-26T07:33:45;12.17;;;8.43;;
70459;SDS011;57920;54.796;9.430;2023-01-26T07:36:11;10.37;;;6.37;;
70459;SDS011;57920;54.796;9.430;2023-01-26T07:38:37;14.27;;;8.03;;
70459;SDS011;57920;54.796;9.430;2023-01-26T07:41:03;10.77;;;6.43;;
70459;SDS011;57920;54.796;9.430;2023-01-26T07:43:36;10.30;;;6.67;;
70459;SDS011;57920;54.796;9.430;2023-01-26T07:46:02;11.07;;;6.20;;
70459;SDS011;57920;54.796;9.430;2023-01-26T07:48:31;10.43;;;6.20;;
70459;SDS011;57920;54.796;9.430;2023-01-26T07:50:58;6.73;;;4.60;;
70459;SDS011;57920;54.796;9.430;2023-01-26T07:53:25;14.53;;;6.77;;
70459;SDS011;57920;54.796;9.430;2023-01-26T07:55:53;9.47;;;5.53;;
70459;SDS011;57920;54.796;9.430;2023-01-26T07:58:19;20.13;;;8.30;;
70459;SDS011;57920;54.796;9.430;2023-01-26T08:00:45;18.83;;;7.70;;
70459;SDS011;57920;54.796;9.430;2023-01-26T08:03:11;18.87;;;7.03;;
70459;SDS011;57920;54.796;9.430;2023-01-26T08:05:37;14.40;;;6.10;;
70459;SDS011;57920;54.796;9.430;2023-01-26T08:08:03;12.57;;;6.17;;
70459;SDS011;57920;54.796;9.430;2023-01-26T08:10:29;11.67;;;5.70;;
70459;SDS011;57920;54.796;9.430;2023-01-26T08:12:56;16.47;;;6.93;;
70459;SDS011;57920;54.796;9.430;2023-01-26T08:15:25;11.43;;;6.13;;
70459;SDS011;57920;54.796;9.430;2023-01-26T08:17:54;15.07;;;5.63;;
70459;SDS011;57920;54.796;9.430;2023-01-26T08:20:23;9.77;;;5.53;;
70459;SDS011;57920;54.796;9.430;2023-01-26T08:22:48;8.30;;;5.17;;
70459;SDS011;57920;54.796;9.430;2023-01-26T08:25:14;8.03;;;4.43;;
70459;SDS011;57920;54.796;9.430;2023-01-26T08:27:40;9.50;;;4.70;;
70459;SDS011;57920;54.796;9.430;2023-01-26T08:30:05;14.07;;;5.33;;
70459;SDS011;57920;54.796;9.430;2023-01-26T08:32:31;8.77;;;4.70;;
70459;SDS011;57920;54.796;9.430;2023-01-26T08:34:57;6.83;;;4.57;;
70459;SDS011;57920;54.796;9.430;2023-01-26T08:37:22;5.70;;;3.50;;
70459;SDS011;57920;54.796;9.430;2023-01-26T08:39:48;6.23;;;3.93;;
70459;SDS011;57920;54.796;9.430;2023-01-26T08:42:14;9.80;;;4.37;;
70459;SDS011;57920;54.796;9.430;2023-01-26T08:44:39;9.07;;;4.17;;
70459;SDS011;57920;54.796;9.430;2023-01-26T08:47:05;8.60;;;3.63;;
70459;SDS011;57920;54.796;9.430;2023-01-26T08:49:30;7.20;;;3.57;;
70459;SDS011;57920;54.796;9.430;2023-01-26T08:51:56;10.47;;;4.30;;
70459;SDS011;57920;54.796;9.430;2023-01-26T08:54:21;5.40;;;3.53;;
70459;SDS011;57920;54.796;9.430;2023-01-26T08:56:47;4.90;;;3.10;;
70459;SDS011;57920;54.796;9.430;2023-01-26T08:59:13;6.07;;;4.40;;
70459;SDS011;57920;54.796;9.430;2023-01-26T09:01:38;6.63;;;3.43;;
70459;SDS011;57920;54.796;9.430;2023-01-26T09:04:04;6.97;;;3.33;;
70459;SDS011;57920;54.796;9.430;2023-01-26T09:06:29;7.50;;;3.83;;
70459;SDS011;57920;54.796;9.430;2023-01-26T09:08:57;7.83;;;3.40;;
70459;SDS011;57920;54.796;9.430;2023-01-26T09:11:22;8.90;;;3.30;;
70459;SDS011;57920;54.796;9.430;2023-01-26T09:13:49;9.67;;;4.00;;
70459;SDS011;57920;54.796;9.430;2023-01-26T09:16:20;4.37;;;2.80;;
70459;SDS011;57920;54.796;9.430;2023-01-26T09:19:02;4.53;;;2.53;;
70459;SDS011;57920;54.796;9.430;2023-01-26T09:21:29;22.20;;;4.53;;
70459;SDS011;57920;54.796;9.430;2023-01-26T09:23:55;6.43;;;2.80;;
70459;SDS011;57920;54.796;9.430;2023-01-26T09:26:21;14.50;;;3.23;;
70459;SDS011;57920;54.796;9.430;2023-01-26T09:28:50;8.03;;;3.50;;
70459;SDS011;57920;54.796;9.430;2023-01-26T09:31:16;11.43;;;3.87;;
70459;SDS011;57920;54.796;9.430;2023-01-26T09:33:42;36.63;;;7.43;;
70459;SDS011;57920;54.796;9.430;2023-01-26T09:36:08;25.20;;;7.20;;
70459;SDS011;57920;54.796;9.430;2023-01-26T09:38:35;16.03;;;6.80;;
70459;SDS011;57920;54.796;9.430;2023-01-26T09:43:52;11.03;;;5.03;;
70459;SDS011;57920;54.796;9.430;2023-01-26T09:49:05;11.93;;;5.20;;
70459;SDS011;57920;54.796;9.430;2023-01-26T09:54:31;7.83;;;4.17;;
70459;SDS011;57920;54.796;9.430;2023-01-26T09:57:09;11.07;;;5.13;;
70459;SDS011;57920;54.796;9.430;2023-01-26T09:59:57;9.33;;;4.77;;
70459;SDS011;57920;54.796;9.430;2023-01-26T10:02:39;7.40;;;4.20;;
70459;SDS011;57920;54.796;9.430;2023-01-26T10:08:02;8.53;;;4.47;;
70459;SDS011;57920;54.796;9.430;2023-01-26T10:10:34;9.23;;;4.40;;
70459;SDS011;57920;54.796;9.430;2023-01-26T10:13:03;9.40;;;4.40;;
70459;SDS011;57920;54.796;9.430;2023-01-26T10:15:30;6.43;;;4.03;;
70459;SDS011;57920;54.796;9.430;2023-01-26T10:18:03;11.83;;;4.77;;
70459;SDS011;57920;54.796;9.430;2023-01-26T10:24:16;8.17;;;4.73;;
70459;SDS011;57920;54.796;9.430;2023-01-26T10:26:45;11.47;;;5.20;;
70459;SDS011;57920;54.796;9.430;2023-01-26T10:29:20;7.80;;;4.40;;
70459;SDS011;57920;54.796;9.430;2023-01-26T10:31:47;39.23;;;11.00;;
70459;SDS011;57920;54.796;9.430;2023-01-26T10:34:21;35.47;;;12.13;;
70459;SDS011;57920;54.796;9.430;2023-01-26T10:36:48;40.60;;;11.03;;
70459;SDS011;57920;54.796;9.430;2023-01-26T10:39:15;30.07;;;9.67;;
70459;SDS011;57920;54.796;9.430;2023-01-26T10:41:55;32.30;;;10.13;;
70459;SDS011;57920;54.796;9.430;2023-01-26T10:44:29;25.40;;;8.67;;
70459;SDS011;57920;54.796;9.430;2023-01-26T10:49:43;16.80;;;6.57;;
70459;SDS011;57920;54.796;9.430;2023-01-26T10:52:20;24.13;;;8.97;;
70459;SDS011;57920;54.796;9.430;2023-01-26T10:55:10;14.10;;;6.67;;
70459;SDS011;57920;54.796;9.430;2023-01-26T10:57:44;20.37;;;7.40;;
70459;SDS011;57920;54.796;9.430;2023-01-26T11:00:29;23.67;;;8.00;;
70459;SDS011;57920;54.796;9.430;2023-01-26T11:03:03;15.77;;;6.03;;
70459;SDS011;57920;54.796;9.430;2023-01-26T11:05:29;19.33;;;7.57;;
70459;SDS011;57920;54.796;9.430;2023-01-26T11:07:55;18.53;;;7.00;;
70459;SDS011;57920;54.796;9.430;2023-01-26T11:15:37;14.50;;;5.27;;
70459;SDS011;57920;54.796;9.430;2023-01-26T11:24:32;12.70;;;4.80;;
70459;SDS011;57920;54.796;9.430;2023-01-26T11:35:36;13.17;;;4.67;;
70459;SDS011;57920;54.796;9.430;2023-01-26T11:40:49;11.40;;;4.47;;
70459;SDS011;57920;54.796;9.430;2023-01-26T11:43:25;29.73;;;7.13;;
70459;SDS011;57920;54.796;9.430;2023-01-26T11:58:30;50.73;;;13.20;;
70459;SDS011;57920;54.796;9.430;2023-01-26T12:01:07;43.50;;;11.80;;
70459;SDS011;57920;54.796;9.430;2023-01-26T12:03:52;34.67;;;9.97;;
70459;SDS011;57920;54.796;9.430;2023-01-26T12:06:23;37.83;;;11.17;;
70459;SDS011;57920;54.796;9.430;2023-01-26T12:11:30;33.27;;;11.47;;
70459;SDS011;57920;54.796;9.430;2023-01-26T12:14:15;31.17;;;11.67;;
70459;SDS011;57920;54.796;9.430;2023-01-26T12:19:45;27.00;;;9.37;;
70459;SDS011;57920;54.796;9.430;2023-01-26T12:22:35;17.33;;;7.20;;
70459;SDS011;57920;54.796;9.430;2023-01-26T12:27:58;22.07;;;8.30;;
70459;SDS011;57920;54.796;9.430;2023-01-26T12:30:46;34.03;;;9.30;;
70459;SDS011;57920;54.796;9.430;2023-01-26T12:33:19;18.90;;;7.63;;
70459;SDS011;57920;54.796;9.430;2023-01-26T12:41:17;37.07;;;10.10;;
70459;SDS011;57920;54.796;9.430;2023-01-26T12:46:26;20.90;;;7.23;;
70459;SDS011;57920;54.796;9.430;2023-01-26T12:52:07;70.03;;;31.03;;
70459;SDS011;57920;54.796;9.430;2023-01-26T12:57:11;30.07;;;12.43;;
70459;SDS011;57920;54.796;9.430;2023-01-26T12:59:41;27.80;;;11.90;;
70459;SDS011;57920;54.796;9.430;2023-01-26T13:02:29;27.63;;;10.90;;
70459;SDS011;57920;54.796;9.430;2023-01-26T13:04:55;26.87;;;9.57;;
70459;SDS011;57920;54.796;9.430;2023-01-26T13:07:28;26.13;;;10.87;;
70459;SDS011;57920;54.796;9.430;2023-01-26T13:15:19;19.17;;;9.10;;
70459;SDS011;57920;54.796;9.430;2023-01-26T13:18:01;22.10;;;9.53;;
70459;SDS011;57920;54.796;9.430;2023-01-26T13:20:41;21.20;;;9.00;;
70459;SDS011;57920;54.796;9.430;2023-01-26T13:26:11;22.43;;;10.83;;
70459;SDS011;57920;54.796;9.430;2023-01-26T13:28:40;19.63;;;10.47;;
70459;SDS011;57920;54.796;9.430;2023-01-26T13:31:06;26.80;;;10.90;;
70459;SDS011;57920;54.796;9.430;2023-01-26T13:33:34;20.43;;;8.90;;
70459;SDS011;57920;54.796;9.430;2023-01-26T13:36:01;37.17;;;11.57;;
70459;SDS011;57920;54.796;9.430;2023-01-26T13:38:37;38.43;;;11.70;;
70459;SDS011;57920;54.796;9.430;2023-01-26T13:41:07;25.30;;;11.50;;
70459;SDS011;57920;54.796;9.430;2023-01-26T13:43:42;32.70;;;10.53;;
70459;SDS011;57920;54.796;9.430;2023-01-26T13:46:26;36.33;;;9.63;;
70459;SDS011;57920;54.796;9.430;2023-01-26T13:52:40;20.43;;;8.07;;
70459;SDS011;57920;54.796;9.430;2023-01-26T13:55:07;26.13;;;9.60;;
70459;SDS011;57920;54.796;9.430;2023-01-26T13:57:44;25.37;;;8.87;;
70459;SDS011;57920;54.796;9.430;2023-01-26T14:00:13;18.17;;;7.97;;
70459;SDS011;57920;54.796;9.430;2023-01-26T14:02:39;28.03;;;8.50;;
70459;SDS011;57920;54.796;9.430;2023-01-26T14:05:05;18.63;;;7.37;;
70459;SDS011;57920;54.796;9.430;2023-01-26T14:07:38;18.87;;;7.43;;
70459;SDS011;57920;54.796;9.430;2023-01-26T14:10:06;21.47;;;7.00;;
70459;SDS011;57920;54.796;9.430;2023-01-26T14:12:42;15.13;;;5.37;;
70459;SDS011;57920;54.796;9.430;2023-01-26T14:15:21;16.20;;;6.37;;
70459;SDS011;57920;54.796;9.430;2023-01-26T14:17:49;16.93;;;5.93;;
70459;SDS011;57920;54.796;9.430;2023-01-26T14:23:25;12.90;;;4.90;;
70459;SDS011;57920;54.796;9.430;2023-01-26T14:28:32;9.13;;;4.67;;
70459;SDS011;57920;54.796;9.430;2023-01-26T14:31:05;13.03;;;5.67;;
70459;SDS011;57920;54.796;9.430;2023-01-26T14:33:33;13.70;;;5.90;;
70459;SDS011;57920;54.796;9.430;2023-01-26T14:36:00;36.47;;;8.83;;
70459;SDS011;57920;54.796;9.430;2023-01-26T14:38:29;51.37;;;11.90;;
70459;SDS011;57920;54.796;9.430;2023-01-26T14:41:07;36.90;;;10.30;;
70459;SDS011;57920;54.796;9.430;2023-01-26T14:43:42;49.83;;;10.10;;
70459;SDS011;57920;54.796;9.430;2023-01-26T14:46:14;23.57;;;8.37;;
70459;SDS011;57920;54.796;9.430;2023-01-26T14:51:17;33.27;;;8.77;;
70459;SDS011;57920;54.796;9.430;2023-01-26T14:53:58;25.97;;;7.00;;
70459;SDS011;57920;54.796;9.430;2023-01-26T14:56:38;19.47;;;5.30;;
70459;SDS011;57920;54.796;9.430;2023-01-26T14:59:15;28.47;;;7.40;;
70459;SDS011;57920;54.796;9.430;2023-01-26T15:02:01;15.43;;;6.90;;
70459;SDS011;57920;54.796;9.430;2023-01-26T15:04:41;24.03;;;6.67;;
70459;SDS011;57920;54.796;9.430;2023-01-26T15:10:03;12.33;;;4.77;;
70459;SDS011;57920;54.796;9.430;2023-01-26T15:12:59;20.83;;;5.90;;
70459;SDS011;57920;54.796;9.430;2023-01-26T15:15:32;10.67;;;4.67;;
70459;SDS011;57920;54.796;9.430;2023-01-26T15:18:19;12.63;;;5.70;;
70459;SDS011;57920;54.796;9.430;2023-01-26T15:21:08;11.50;;;4.00;;
70459;SDS011;57920;54.796;9.430;2023-01-26T15:23:35;7.63;;;3.77;;
70459;SDS011;57920;54.796;9.430;2023-01-26T15:26:09;9.87;;;4.53;;
70459;SDS011;57920;54.796;9.430;2023-01-26T15:28:49;11.50;;;4.83;;
70459;SDS011;57920;54.796;9.430;2023-01-26T15:31:19;10.27;;;4.03;;
70459;SDS011;57920;54.796;9.430;2023-01-26T15:39:28;9.73;;;4.60;;
70459;SDS011;57920;54.796;9.430;2023-01-26T15:44:40;9.07;;;3.37;;
70459;SDS011;57920;54.796;9.430;2023-01-26T15:47:09;10.30;;;3.47;;
70459;SDS011;57920;54.796;9.430;2023-01-26T15:49:36;7.97;;;3.67;;
70459;SDS011;57920;54.796;9.430;2023-01-26T15:52:02;9.93;;;3.90;;
70459;SDS011;57920;54.796;9.430;2023-01-26T15:54:33;5.73;;;2.50;;
70459;SDS011;57920;54.796;9.430;2023-01-26T15:56:59;5.03;;;3.13;;
70459;SDS011;57920;54.796;9.430;2023-01-26T15:59:24;9.70;;;3.30;;
70459;SDS011;57920;54.796;9.430;2023-01-26T16:01:50;7.33;;;3.40;;
70459;SDS011;57920;54.796;9.430;2023-01-26T16:04:15;5.70;;;3.40;;
70459;SDS011;57920;54.796;9.430;2023-01-26T16:06:41;4.60;;;3.10;;
70459;SDS011;57920;54.796;9.430;2023-01-26T16:09:06;6.27;;;3.27;;
70459;SDS011;57920;54.796;9.430;2023-01-26T16:11:36;7.53;;;3.27;;
70459;SDS011;57920;54.796;9.430;2023-01-26T16:14:08;4.40;;;2.83;;
70459;SDS011;57920;54.796;9.430;2023-01-26T16:16:37;9.57;;;3.60;;
70459;SDS011;57920;54.796;9.430;2023-01-26T16:19:02;8.53;;;3.37;;
70459;SDS011;57920;54.796;9.430;2023-01-26T16:21:28;6.03;;;3.10;;
70459;SDS011;57920;54.796;9.430;2023-01-26T16:23:57;5.30;;;2.40;;
70459;SDS011;57920;54.796;9.430;2023-01-26T16:26:24;7.60;;;3.13;;
70459;SDS011;57920;54.796;9.430;2023-01-26T16:28:51;3.83;;;1.93;;
70459;SDS011;57920;54.796;9.430;2023-01-26T16:31:18;6.07;;;2.57;;
70459;SDS011;57920;54.796;9.430;2023-01-26T16:33:45;5.87;;;2.67;;
70459;SDS011;57920;54.796;9.430;2023-01-26T16:36:12;6.57;;;3.33;;
70459;SDS011;57920;54.796;9.430;2023-01-26T16:38:39;3.90;;;2.33;;
70459;SDS011;57920;54.796;9.430;2023-01-26T16:41:08;3.43;;;2.20;;
70459;SDS011;57920;54.796;9.430;2023-01-26T16:43:42;5.23;;;2.47;;
70459;SDS011;57920;54.796;9.430;2023-01-26T16:46:08;5.23;;;2.20;;
70459;SDS011;57920;54.796;9.430;2023-01-26T16:48:34;4.70;;;2.30;;
70459;SDS011;57920;54.796;9.430;2023-01-26T16:51:12;3.23;;;2.43;;
70459;SDS011;57920;54.796;9.430;2023-01-26T16:53:40;4.50;;;2.40;;
70459;SDS011;57920;54.796;9.430;2023-01-26T16:56:10;5.43;;;2.67;;
70459;SDS011;57920;54.796;9.430;2023-01-26T16:58:36;2.90;;;2.07;;